sensor_id;sensor_type;location;lat;lon;timestamp;temperature;humidity
7399;DHT22;3740;50.700;7.184;2022-10-04T00:01:27;11.60;99.90
7399;DHT22;3740;50.700;7.184;2022-10-04T00:04:04;11.60;99.90
7399;DHT22;3740;50.700;7.184;2022-10-04T00:06:31;11.60;99.90
7399;DHT22;3740;50.700;7.184;2022-10-04T00:09:02;11.50;99.90
7399;DHT22;3740;50.700;7.184;2022-10-04T00:11:34;11.40;99.90
7399;DHT22;3740;50.700;7.184;2022-10-04T00:14:06;11.50;99.90
7399;DHT22;3740;50.700;7.184;2022-10-04T00:16:35;11.50;99.90
7399;DHT22;3740;50.700;7.184;2022-10-04T00:24:28;11.40;99.90
7399;DHT22;3740;50.700;7.184;2022-10-04T00:27:22;11.50;99.90
7399;DHT22;3740;50.700;7.184;2022-10-04T00:33:14;11.50;99.90
7399;DHT22;3740;50.700;7.184;2022-10-04T00:38:01;11.30;99.90
7399;DHT22;3740;50.700;7.184;2022-10-04T00:43:16;11.40;99.90
7399;DHT22;3740;50.700;7.184;2022-10-04T00:45:51;11.50;99.90
7399;DHT22;3740;50.700;7.184;2022-10-04T00:48:33;11.50;99.90
7399;DHT22;3740;50.700;7.184;2022-10-04T00:51:18;11.40;99.90
7399;DHT22;3740;50.700;7.184;2022-10-04T00:56:39;11.40;99.90
7399;DHT22;3740;50.700;7.184;2022-10-04T01:01:43;11.60;99.90
7399;DHT22;3740;50.700;7.184;2022-10-04T01:05:08;11.50;99.90
7399;DHT22;3740;50.700;7.184;2022-10-04T01:07:10;11.40;99.90
7399;DHT22;3740;50.700;7.184;2022-10-04T01:09:48;11.50;99.90
7399;DHT22;3740;50.700;7.184;2022-10-04T01:12:31;11.50;99.90
7399;DHT22;3740;50.700;7.184;2022-10-04T01:17:30;11.50;99.90
7399;DHT22;3740;50.700;7.184;2022-10-04T01:19:56;11.50;99.90
7399;DHT22;3740;50.700;7.184;2022-10-04T01:22:41;11.50;99.90
7399;DHT22;3740;50.700;7.184;2022-10-04T01:25:08;11.50;99.90
7399;DHT22;3740;50.700;7.184;2022-10-04T01:27:42;11.50;99.90
7399;DHT22;3740;50.700;7.184;2022-10-04T01:30:13;11.50;99.90
7399;DHT22;3740;50.700;7.184;2022-10-04T01:32:39;11.30;99.90
7399;DHT22;3740;50.700;7.184;2022-10-04T01:35:11;11.30;99.90
7399;DHT22;3740;50.700;7.184;2022-10-04T01:37:37;11.30;99.90
7399;DHT22;3740;50.700;7.184;2022-10-04T01:40:05;11.30;99.90
7399;DHT22;3740;50.700;7.184;2022-10-04T01:42:38;11.40;99.90
7399;DHT22;3740;50.700;7.184;2022-10-04T01:47:51;11.30;99.90
7399;DHT22;3740;50.700;7.184;2022-10-04T01:50:28;11.40;99.90
7399;DHT22;3740;50.700;7.184;2022-10-04T01:53:00;11.40;99.90
7399;DHT22;3740;50.700;7.184;2022-10-04T01:55:35;11.50;99.90
7399;DHT22;3740;50.700;7.184;2022-10-04T02:00:33;11.50;99.90
7399;DHT22;3740;50.700;7.184;2022-10-04T02:03:03;11.60;99.90
7399;DHT22;3740;50.700;7.184;2022-10-04T02:05:35;11.70;99.90
7399;DHT22;3740;50.700;7.184;2022-10-04T02:08:07;11.70;99.90
7399;DHT22;3740;50.700;7.184;2022-10-04T02:10:34;11.80;99.90
7399;DHT22;3740;50.700;7.184;2022-10-04T02:13:07;11.60;99.90
7399;DHT22;3740;50.700;7.184;2022-10-04T02:15:34;11.60;99.90
7399;DHT22;3740;50.700;7.184;2022-10-04T02:18:02;11.70;99.90
7399;DHT22;3740;50.700;7.184;2022-10-04T02:20:31;11.70;99.90
7399;DHT22;3740;50.700;7.184;2022-10-04T02:22:58;11.70;99.90
7399;DHT22;3740;50.700;7.184;2022-10-04T02:25:28;11.70;99.90
7399;DHT22;3740;50.700;7.184;2022-10-04T02:27:54;11.60;99.90
7399;DHT22;3740;50.700;7.184;2022-10-04T02:30:21;11.60;99.90
7399;DHT22;3740;50.700;7.184;2022-10-04T02:32:47;11.70;99.90
7399;DHT22;3740;50.700;7.184;2022-10-04T02:35:28;11.80;99.90
7399;DHT22;3740;50.700;7.184;2022-10-04T02:38:03;11.80;99.90
7399;DHT22;3740;50.700;7.184;2022-10-04T02:40:47;11.70;99.90
7399;DHT22;3740;50.700;7.184;2022-10-04T02:43:24;11.70;99.90
7399;DHT22;3740;50.700;7.184;2022-10-04T02:45:54;11.70;99.90
7399;DHT22;3740;50.700;7.184;2022-10-04T02:48:34;11.80;99.90
7399;DHT22;3740;50.700;7.184;2022-10-04T02:51:33;11.80;99.90
7399;DHT22;3740;50.700;7.184;2022-10-04T02:54:26;11.80;99.90
7399;DHT22;3740;50.700;7.184;2022-10-04T02:56:54;11.70;99.90
7399;DHT22;3740;50.700;7.184;2022-10-04T02:59:20;11.80;99.90
7399;DHT22;3740;50.700;7.184;2022-10-04T03:04:21;11.90;99.90
7399;DHT22;3740;50.700;7.184;2022-10-04T03:06:48;11.90;99.90
7399;DHT22;3740;50.700;7.184;2022-10-04T03:09:15;11.80;99.90
7399;DHT22;3740;50.700;7.184;2022-10-04T03:11:42;11.80;99.90
7399;DHT22;3740;50.700;7.184;2022-10-04T03:14:12;11.80;99.90
7399;DHT22;3740;50.700;7.184;2022-10-04T03:16:42;11.80;99.90
7399;DHT22;3740;50.700;7.184;2022-10-04T03:19:09;11.80;99.90
7399;DHT22;3740;50.700;7.184;2022-10-04T03:21:36;11.70;99.90
7399;DHT22;3740;50.700;7.184;2022-10-04T03:24:07;11.70;99.90
7399;DHT22;3740;50.700;7.184;2022-10-04T03:26:41;11.70;99.90
7399;DHT22;3740;50.700;7.184;2022-10-04T03:29:09;11.80;99.90
7399;DHT22;3740;50.700;7.184;2022-10-04T03:31:43;11.80;99.90
7399;DHT22;3740;50.700;7.184;2022-10-04T03:34:21;11.80;99.90
7399;DHT22;3740;50.700;7.184;2022-10-04T03:36:49;11.70;99.90
7399;DHT22;3740;50.700;7.184;2022-10-04T03:39:24;11.80;99.90
7399;DHT22;3740;50.700;7.184;2022-10-04T03:41:52;11.80;99.90
7399;DHT22;3740;50.700;7.184;2022-10-04T03:44:18;11.80;99.90
7399;DHT22;3740;50.700;7.184;2022-10-04T03:46:45;11.80;99.90
7399;DHT22;3740;50.700;7.184;2022-10-04T03:49:16;11.80;99.90
7399;DHT22;3740;50.700;7.184;2022-10-04T03:51:45;11.70;99.90
7399;DHT22;3740;50.700;7.184;2022-10-04T03:54:17;11.80;99.90
7399;DHT22;3740;50.700;7.184;2022-10-04T03:56:43;11.80;99.90
7399;DHT22;3740;50.700;7.184;2022-10-04T03:59:14;11.70;99.90
7399;DHT22;3740;50.700;7.184;2022-10-04T04:01:57;11.70;99.90
7399;DHT22;3740;50.700;7.184;2022-10-04T04:07:12;11.60;99.90
7399;DHT22;3740;50.700;7.184;2022-10-04T04:09:56;11.70;99.90
7399;DHT22;3740;50.700;7.184;2022-10-04T04:12:39;11.60;99.90
7399;DHT22;3740;50.700;7.184;2022-10-04T04:15:10;11.70;99.90
7399;DHT22;3740;50.700;7.184;2022-10-04T04:17:39;11.60;99.90
7399;DHT22;3740;50.700;7.184;2022-10-04T04:20:18;11.50;99.90
7399;DHT22;3740;50.700;7.184;2022-10-04T04:22:51;11.50;99.90
7399;DHT22;3740;50.700;7.184;2022-10-04T04:25:18;11.40;99.90
7399;DHT22;3740;50.700;7.184;2022-10-04T04:28:00;11.40;99.90
7399;DHT22;3740;50.700;7.184;2022-10-04T04:30:28;11.40;99.90
7399;DHT22;3740;50.700;7.184;2022-10-04T04:32:56;11.40;99.90
7399;DHT22;3740;50.700;7.184;2022-10-04T04:35:32;11.50;99.90
7399;DHT22;3740;50.700;7.184;2022-10-04T04:38:02;11.60;99.90
7399;DHT22;3740;50.700;7.184;2022-10-04T04:40:28;11.60;99.90
7399;DHT22;3740;50.700;7.184;2022-10-04T04:42:57;11.60;99.90
7399;DHT22;3740;50.700;7.184;2022-10-04T04:45:26;11.50;99.90
7399;DHT22;3740;50.700;7.184;2022-10-04T04:47:57;11.60;99.90
7399;DHT22;3740;50.700;7.184;2022-10-04T04:50:48;11.60;99.90
7399;DHT22;3740;50.700;7.184;2022-10-04T04:53:23;11.60;99.90
7399;DHT22;3740;50.700;7.184;2022-10-04T04:56:05;11.60;99.90
7399;DHT22;3740;50.700;7.184;2022-10-04T04:58:39;11.60;99.90
7399;DHT22;3740;50.700;7.184;2022-10-04T05:01:56;11.40;99.90
7399;DHT22;3740;50.700;7.184;2022-10-04T05:06:34;11.30;99.90
7399;DHT22;3740;50.700;7.184;2022-10-04T05:09:00;11.40;99.90
7399;DHT22;3740;50.700;7.184;2022-10-04T05:11:30;11.40;99.90
7399;DHT22;3740;50.700;7.184;2022-10-04T05:14:10;11.50;99.90
7399;DHT22;3740;50.700;7.184;2022-10-04T05:16:47;11.50;99.90
7399;DHT22;3740;50.700;7.184;2022-10-04T05:19:20;11.40;99.90
7399;DHT22;3740;50.700;7.184;2022-10-04T05:21:48;11.40;99.90
7399;DHT22;3740;50.700;7.184;2022-10-04T05:24:21;11.30;99.90
7399;DHT22;3740;50.700;7.184;2022-10-04T05:27:00;11.30;99.90
7399;DHT22;3740;50.700;7.184;2022-10-04T05:29:30;11.30;99.90
7399;DHT22;3740;50.700;7.184;2022-10-04T05:32:10;11.10;99.90
7399;DHT22;3740;50.700;7.184;2022-10-04T05:34:41;11.10;99.90
7399;DHT22;3740;50.700;7.184;2022-10-04T05:40:28;11.30;99.90
7399;DHT22;3740;50.700;7.184;2022-10-04T05:43:00;11.30;99.90
7399;DHT22;3740;50.700;7.184;2022-10-04T05:45:29;11.20;99.90
7399;DHT22;3740;50.700;7.184;2022-10-04T05:47:56;11.20;99.90
7399;DHT22;3740;50.700;7.184;2022-10-04T05:50:49;11.30;99.90
7399;DHT22;3740;50.700;7.184;2022-10-04T05:53:30;11.30;99.90
7399;DHT22;3740;50.700;7.184;2022-10-04T06:01:55;11.20;99.90
7399;DHT22;3740;50.700;7.184;2022-10-04T06:04:42;11.00;99.90
7399;DHT22;3740;50.700;7.184;2022-10-04T06:07:34;10.90;99.90
7399;DHT22;3740;50.700;7.184;2022-10-04T06:22:17;10.70;99.90
7399;DHT22;3740;50.700;7.184;2022-10-04T06:24:50;10.70;99.90
7399;DHT22;3740;50.700;7.184;2022-10-04T06:30:14;10.80;99.90
7399;DHT22;3740;50.700;7.184;2022-10-04T06:33:08;10.80;99.90
7399;DHT22;3740;50.700;7.184;2022-10-04T06:38:47;10.80;99.90
7399;DHT22;3740;50.700;7.184;2022-10-04T06:44:11;10.80;99.90
7399;DHT22;3740;50.700;7.184;2022-10-04T06:46:49;10.80;99.90
7399;DHT22;3740;50.700;7.184;2022-10-04T06:49:35;10.70;99.90
7399;DHT22;3740;50.700;7.184;2022-10-04T07:02:30;10.90;99.90
7399;DHT22;3740;50.700;7.184;2022-10-04T07:05:05;10.90;99.90
7399;DHT22;3740;50.700;7.184;2022-10-04T07:07:49;10.90;99.90
7399;DHT22;3740;50.700;7.184;2022-10-04T07:10:34;10.90;99.90
7399;DHT22;3740;50.700;7.184;2022-10-04T07:18:10;11.00;99.90
7399;DHT22;3740;50.700;7.184;2022-10-04T07:20:38;11.00;99.90
7399;DHT22;3740;50.700;7.184;2022-10-04T07:23:21;11.10;99.90
7399;DHT22;3740;50.700;7.184;2022-10-04T07:25:52;11.10;99.90
7399;DHT22;3740;50.700;7.184;2022-10-04T07:28:24;11.10;99.90
7399;DHT22;3740;50.700;7.184;2022-10-04T07:31:13;11.20;99.90
7399;DHT22;3740;50.700;7.184;2022-10-04T07:33:48;11.20;99.90
7399;DHT22;3740;50.700;7.184;2022-10-04T07:36:22;11.20;99.90
7399;DHT22;3740;50.700;7.184;2022-10-04T07:38:55;11.20;99.90
7399;DHT22;3740;50.700;7.184;2022-10-04T07:41:29;11.30;99.90
7399;DHT22;3740;50.700;7.184;2022-10-04T07:44:23;11.40;99.90
7399;DHT22;3740;50.700;7.184;2022-10-04T07:47:12;11.40;99.90
7399;DHT22;3740;50.700;7.184;2022-10-04T07:49:42;11.40;99.90
7399;DHT22;3740;50.700;7.184;2022-10-04T07:52:26;11.50;99.90
7399;DHT22;3740;50.700;7.184;2022-10-04T08:00:27;11.60;99.90
7399;DHT22;3740;50.700;7.184;2022-10-04T08:05:40;11.80;99.90
7399;DHT22;3740;50.700;7.184;2022-10-04T08:14:15;12.10;99.90
7399;DHT22;3740;50.700;7.184;2022-10-04T08:33:34;12.80;99.90
7399;DHT22;3740;50.700;7.184;2022-10-04T08:36:37;12.90;99.90
7399;DHT22;3740;50.700;7.184;2022-10-04T08:39:15;13.00;99.90
7399;DHT22;3740;50.700;7.184;2022-10-04T08:41:53;13.00;99.90
7399;DHT22;3740;50.700;7.184;2022-10-04T08:59:15;13.30;99.90
7399;DHT22;3740;50.700;7.184;2022-10-04T09:15:36;13.40;99.90
7399;DHT22;3740;50.700;7.184;2022-10-04T09:18:30;13.50;99.90
7399;DHT22;3740;50.700;7.184;2022-10-04T09:21:13;13.60;99.90
7399;DHT22;3740;50.700;7.184;2022-10-04T09:26:46;13.70;99.90
7399;DHT22;3740;50.700;7.184;2022-10-04T09:32:11;13.70;99.90
7399;DHT22;3740;50.700;7.184;2022-10-04T09:37:44;13.80;99.90
7399;DHT22;3740;50.700;7.184;2022-10-04T09:40:59;13.80;99.90
7399;DHT22;3740;50.700;7.184;2022-10-04T09:43:55;13.90;99.90
7399;DHT22;3740;50.700;7.184;2022-10-04T09:57:43;14.40;99.90
7399;DHT22;3740;50.700;7.184;2022-10-04T10:00:34;14.50;99.90
7399;DHT22;3740;50.700;7.184;2022-10-04T10:06:22;14.80;99.90
7399;DHT22;3740;50.700;7.184;2022-10-04T10:11:31;15.10;99.90
7399;DHT22;3740;50.700;7.184;2022-10-04T10:14:55;15.60;99.90
7399;DHT22;3740;50.700;7.184;2022-10-04T10:17:49;17.50;99.90
7399;DHT22;3740;50.700;7.184;2022-10-04T10:23:13;23.70;99.90
7399;DHT22;3740;50.700;7.184;2022-10-04T10:32:00;28.80;83.90
7399;DHT22;3740;50.700;7.184;2022-10-04T10:37:32;29.90;77.30
7399;DHT22;3740;50.700;7.184;2022-10-04T10:46:03;31.60;68.70
7399;DHT22;3740;50.700;7.184;2022-10-04T10:59:22;30.60;69.90
7399;DHT22;3740;50.700;7.184;2022-10-04T11:02:35;31.50;63.70
7399;DHT22;3740;50.700;7.184;2022-10-04T11:08:09;30.70;62.70
7399;DHT22;3740;50.700;7.184;2022-10-04T11:16:22;26.40;73.10
7399;DHT22;3740;50.700;7.184;2022-10-04T11:19:25;27.10;74.20
7399;DHT22;3740;50.700;7.184;2022-10-04T11:22:24;27.90;70.60
7399;DHT22;3740;50.700;7.184;2022-10-04T11:25:27;28.10;71.10
7399;DHT22;3740;50.700;7.184;2022-10-04T11:34:01;29.40;67.50
7399;DHT22;3740;50.700;7.184;2022-10-04T11:47:39;30.70;65.30
7399;DHT22;3740;50.700;7.184;2022-10-04T12:04:21;29.20;68.00
7399;DHT22;3740;50.700;7.184;2022-10-04T12:07:00;29.50;66.90
7399;DHT22;3740;50.700;7.184;2022-10-04T12:15:18;29.10;68.60
7399;DHT22;3740;50.700;7.184;2022-10-04T12:24:06;27.70;72.50
7399;DHT22;3740;50.700;7.184;2022-10-04T12:35:53;26.20;78.10
7399;DHT22;3740;50.700;7.184;2022-10-04T12:46:40;25.00;83.50
7399;DHT22;3740;50.700;7.184;2022-10-04T12:51:44;24.60;85.70
7399;DHT22;3740;50.700;7.184;2022-10-04T13:16:54;23.70;91.80
7399;DHT22;3740;50.700;7.184;2022-10-04T13:19:41;23.70;91.60
7399;DHT22;3740;50.700;7.184;2022-10-04T13:28:33;23.70;92.50
7399;DHT22;3740;50.700;7.184;2022-10-04T13:31:23;23.40;92.60
7399;DHT22;3740;50.700;7.184;2022-10-04T13:45:14;23.50;92.80
7399;DHT22;3740;50.700;7.184;2022-10-04T13:48:15;23.30;93.10
7399;DHT22;3740;50.700;7.184;2022-10-04T13:54:10;23.30;93.50
7399;DHT22;3740;50.700;7.184;2022-10-04T13:57:15;23.20;93.90
7399;DHT22;3740;50.700;7.184;2022-10-04T14:00:06;23.20;93.90
7399;DHT22;3740;50.700;7.184;2022-10-04T14:09:07;22.90;94.70
7399;DHT22;3740;50.700;7.184;2022-10-04T14:12:03;23.00;94.70
7399;DHT22;3740;50.700;7.184;2022-10-04T14:29:46;22.50;94.80
7399;DHT22;3740;50.700;7.184;2022-10-04T14:35:59;22.40;95.30
7399;DHT22;3740;50.700;7.184;2022-10-04T14:52:04;22.20;96.50
7399;DHT22;3740;50.700;7.184;2022-10-04T14:55:11;22.20;96.30
7399;DHT22;3740;50.700;7.184;2022-10-04T14:58:01;22.10;96.00
7399;DHT22;3740;50.700;7.184;2022-10-04T15:03:37;22.00;95.60
7399;DHT22;3740;50.700;7.184;2022-10-04T15:06:25;22.00;95.70
7399;DHT22;3740;50.700;7.184;2022-10-04T15:08:59;21.90;95.70
7399;DHT22;3740;50.700;7.184;2022-10-04T15:14:32;21.80;95.70
7399;DHT22;3740;50.700;7.184;2022-10-04T15:17:27;21.70;96.30
7399;DHT22;3740;50.700;7.184;2022-10-04T15:22:39;21.70;96.40
7399;DHT22;3740;50.700;7.184;2022-10-04T15:31:05;21.50;96.60
7399;DHT22;3740;50.700;7.184;2022-10-04T15:33:52;21.50;96.20
7399;DHT22;3740;50.700;7.184;2022-10-04T15:39:33;21.40;96.70
7399;DHT22;3740;50.700;7.184;2022-10-04T15:42:28;21.40;96.40
7399;DHT22;3740;50.700;7.184;2022-10-04T15:50:35;21.20;97.40
7399;DHT22;3740;50.700;7.184;2022-10-04T15:53:08;21.10;98.20
7399;DHT22;3740;50.700;7.184;2022-10-04T15:58:23;20.90;98.80
7399;DHT22;3740;50.700;7.184;2022-10-04T16:01:23;20.90;99.00
7399;DHT22;3740;50.700;7.184;2022-10-04T16:04:24;20.70;99.60
7399;DHT22;3740;50.700;7.184;2022-10-04T16:06:59;20.60;99.90
7399;DHT22;3740;50.700;7.184;2022-10-04T16:09:49;20.60;99.90
7399;DHT22;3740;50.700;7.184;2022-10-04T16:12:51;20.50;99.90
7399;DHT22;3740;50.700;7.184;2022-10-04T16:15:29;20.40;99.90
7399;DHT22;3740;50.700;7.184;2022-10-04T16:18:27;20.30;99.90
7399;DHT22;3740;50.700;7.184;2022-10-04T16:34:47;19.80;99.90
7399;DHT22;3740;50.700;7.184;2022-10-04T16:37:25;19.70;99.90
7399;DHT22;3740;50.700;7.184;2022-10-04T16:42:54;19.50;99.90
7399;DHT22;3740;50.700;7.184;2022-10-04T16:48:26;19.30;99.90
7399;DHT22;3740;50.700;7.184;2022-10-04T16:56:28;18.90;99.90
7399;DHT22;3740;50.700;7.184;2022-10-04T17:01:45;18.50;99.90
7399;DHT22;3740;50.700;7.184;2022-10-04T17:12:54;17.90;99.90
7399;DHT22;3740;50.700;7.184;2022-10-04T17:15:36;17.80;99.90
7399;DHT22;3740;50.700;7.184;2022-10-04T17:21:09;17.60;99.90
7399;DHT22;3740;50.700;7.184;2022-10-04T17:24:00;17.50;99.90
7399;DHT22;3740;50.700;7.184;2022-10-04T17:41:27;16.80;99.90
7399;DHT22;3740;50.700;7.184;2022-10-04T17:44:28;16.70;99.90
7399;DHT22;3740;50.700;7.184;2022-10-04T17:50:03;16.50;99.90
7399;DHT22;3740;50.700;7.184;2022-10-04T17:52:55;16.40;99.90
7399;DHT22;3740;50.700;7.184;2022-10-04T17:55:51;16.40;99.90
7399;DHT22;3740;50.700;7.184;2022-10-04T17:58:44;16.40;99.90
7399;DHT22;3740;50.700;7.184;2022-10-04T18:01:23;16.30;99.90
7399;DHT22;3740;50.700;7.184;2022-10-04T18:14:59;15.90;99.90
7399;DHT22;3740;50.700;7.184;2022-10-04T18:17:39;15.80;99.90
7399;DHT22;3740;50.700;7.184;2022-10-04T18:20:17;15.70;99.90
7399;DHT22;3740;50.700;7.184;2022-10-04T18:22:48;15.70;99.90
7399;DHT22;3740;50.700;7.184;2022-10-04T18:25:23;15.70;99.90
7399;DHT22;3740;50.700;7.184;2022-10-04T18:30:55;15.60;99.90
7399;DHT22;3740;50.700;7.184;2022-10-04T18:36:20;15.50;99.90
7399;DHT22;3740;50.700;7.184;2022-10-04T18:39:19;15.40;99.90
7399;DHT22;3740;50.700;7.184;2022-10-04T18:42:06;15.50;99.90
7399;DHT22;3740;50.700;7.184;2022-10-04T18:47:46;15.50;99.90
7399;DHT22;3740;50.700;7.184;2022-10-04T18:50:35;15.40;99.90
7399;DHT22;3740;50.700;7.184;2022-10-04T18:55:59;15.40;99.90
7399;DHT22;3740;50.700;7.184;2022-10-04T19:07:17;15.10;99.90
7399;DHT22;3740;50.700;7.184;2022-10-04T19:12:55;14.90;99.90
7399;DHT22;3740;50.700;7.184;2022-10-04T19:21:10;14.80;99.90
7399;DHT22;3740;50.700;7.184;2022-10-04T19:27:01;14.60;99.90
7399;DHT22;3740;50.700;7.184;2022-10-04T19:32:10;14.60;99.90
7399;DHT22;3740;50.700;7.184;2022-10-04T19:41:10;14.60;99.90
7399;DHT22;3740;50.700;7.184;2022-10-04T19:44:16;14.60;99.90
7399;DHT22;3740;50.700;7.184;2022-10-04T19:46:51;14.70;99.90
7399;DHT22;3740;50.700;7.184;2022-10-04T19:49:55;14.70;99.90
7399;DHT22;3740;50.700;7.184;2022-10-04T19:52:32;14.80;99.90
7399;DHT22;3740;50.700;7.184;2022-10-04T19:58:23;14.70;99.90
7399;DHT22;3740;50.700;7.184;2022-10-04T20:00:49;14.70;99.90
7399;DHT22;3740;50.700;7.184;2022-10-04T20:03:15;14.60;99.90
7399;DHT22;3740;50.700;7.184;2022-10-04T20:05:49;14.60;99.90
7399;DHT22;3740;50.700;7.184;2022-10-04T20:08:43;14.60;99.90
7399;DHT22;3740;50.700;7.184;2022-10-04T20:11:13;14.50;99.90
7399;DHT22;3740;50.700;7.184;2022-10-04T20:13:40;14.40;99.90
7399;DHT22;3740;50.700;7.184;2022-10-04T20:16:05;14.20;99.90
7399;DHT22;3740;50.700;7.184;2022-10-04T20:26:08;14.30;99.90
7399;DHT22;3740;50.700;7.184;2022-10-04T20:31:08;14.30;99.90
7399;DHT22;3740;50.700;7.184;2022-10-04T20:36:11;14.10;99.90
7399;DHT22;3740;50.700;7.184;2022-10-04T20:38:49;14.00;99.90
7399;DHT22;3740;50.700;7.184;2022-10-04T20:44:00;14.10;99.90
7399;DHT22;3740;50.700;7.184;2022-10-04T20:46:37;14.20;99.90
7399;DHT22;3740;50.700;7.184;2022-10-04T20:49:04;14.20;99.90
7399;DHT22;3740;50.700;7.184;2022-10-04T20:51:38;14.10;99.90
7399;DHT22;3740;50.700;7.184;2022-10-04T20:54:04;14.10;99.90
7399;DHT22;3740;50.700;7.184;2022-10-04T20:56:32;14.10;99.90
7399;DHT22;3740;50.700;7.184;2022-10-04T20:58:59;14.10;99.90
7399;DHT22;3740;50.700;7.184;2022-10-04T21:01:33;14.10;99.90
7399;DHT22;3740;50.700;7.184;2022-10-04T21:04:21;14.00;99.90
7399;DHT22;3740;50.700;7.184;2022-10-04T21:07:08;13.90;99.90
7399;DHT22;3740;50.700;7.184;2022-10-04T21:09:38;13.90;99.90
7399;DHT22;3740;50.700;7.184;2022-10-04T21:12:05;13.90;99.90
7399;DHT22;3740;50.700;7.184;2022-10-04T21:14:33;13.90;99.90
7399;DHT22;3740;50.700;7.184;2022-10-04T21:17:03;13.70;99.90
7399;DHT22;3740;50.700;7.184;2022-10-04T21:22:00;13.70;99.90
7399;DHT22;3740;50.700;7.184;2022-10-04T21:24:33;13.70;99.90
7399;DHT22;3740;50.700;7.184;2022-10-04T21:27:00;13.70;99.90
7399;DHT22;3740;50.700;7.184;2022-10-04T21:29:26;13.70;99.90
7399;DHT22;3740;50.700;7.184;2022-10-04T21:31:52;13.70;99.90
7399;DHT22;3740;50.700;7.184;2022-10-04T21:34:19;13.70;99.90
7399;DHT22;3740;50.700;7.184;2022-10-04T21:36:45;13.60;99.90
7399;DHT22;3740;50.700;7.184;2022-10-04T21:39:10;13.60;99.90
7399;DHT22;3740;50.700;7.184;2022-10-04T21:41:36;13.50;99.90
7399;DHT22;3740;50.700;7.184;2022-10-04T21:44:01;13.40;99.90
7399;DHT22;3740;50.700;7.184;2022-10-04T21:46:27;13.50;99.90
7399;DHT22;3740;50.700;7.184;2022-10-04T21:48:52;13.50;99.90
7399;DHT22;3740;50.700;7.184;2022-10-04T21:51:18;13.50;99.90
7399;DHT22;3740;50.700;7.184;2022-10-04T21:53:44;13.50;99.90
7399;DHT22;3740;50.700;7.184;2022-10-04T21:56:09;13.50;99.90
7399;DHT22;3740;50.700;7.184;2022-10-04T21:58:35;13.40;99.90
7399;DHT22;3740;50.700;7.184;2022-10-04T22:01:01;13.40;99.90
7399;DHT22;3740;50.700;7.184;2022-10-04T22:03:27;13.30;99.90
7399;DHT22;3740;50.700;7.184;2022-10-04T22:05:53;13.20;99.90
7399;DHT22;3740;50.700;7.184;2022-10-04T22:08:18;13.20;99.90
7399;DHT22;3740;50.700;7.184;2022-10-04T22:10:44;13.10;99.90
7399;DHT22;3740;50.700;7.184;2022-10-04T22:13:11;13.10;99.90
7399;DHT22;3740;50.700;7.184;2022-10-04T22:15:37;13.10;99.90
7399;DHT22;3740;50.700;7.184;2022-10-04T22:18:02;13.00;99.90
7399;DHT22;3740;50.700;7.184;2022-10-04T22:20:28;13.00;99.90
7399;DHT22;3740;50.700;7.184;2022-10-04T22:22:54;13.00;99.90
7399;DHT22;3740;50.700;7.184;2022-10-04T22:25:23;13.00;99.90
7399;DHT22;3740;50.700;7.184;2022-10-04T22:27:49;13.00;99.90
7399;DHT22;3740;50.700;7.184;2022-10-04T22:30:27;12.90;99.90
7399;DHT22;3740;50.700;7.184;2022-10-04T22:32:55;12.90;99.90
7399;DHT22;3740;50.700;7.184;2022-10-04T22:35:21;12.90;99.90
7399;DHT22;3740;50.700;7.184;2022-10-04T22:37:47;12.90;99.90
7399;DHT22;3740;50.700;7.184;2022-10-04T22:40:23;12.90;99.90
7399;DHT22;3740;50.700;7.184;2022-10-04T22:42:54;13.00;99.90
7399;DHT22;3740;50.700;7.184;2022-10-04T22:45:29;12.90;99.90
7399;DHT22;3740;50.700;7.184;2022-10-04T22:47:57;12.90;99.90
7399;DHT22;3740;50.700;7.184;2022-10-04T22:50:28;12.90;99.90
7399;DHT22;3740;50.700;7.184;2022-10-04T22:52:54;12.90;99.90
7399;DHT22;3740;50.700;7.184;2022-10-04T22:55:19;12.90;99.90
7399;DHT22;3740;50.700;7.184;2022-10-04T22:57:45;12.80;99.90
7399;DHT22;3740;50.700;7.184;2022-10-04T23:00:11;12.70;99.90
7399;DHT22;3740;50.700;7.184;2022-10-04T23:02:37;12.70;99.90
7399;DHT22;3740;50.700;7.184;2022-10-04T23:05:18;12.80;99.90
7399;DHT22;3740;50.700;7.184;2022-10-04T23:07:45;12.80;99.90
7399;DHT22;3740;50.700;7.184;2022-10-04T23:10:12;12.80;99.90
7399;DHT22;3740;50.700;7.184;2022-10-04T23:12:38;12.60;99.90
7399;DHT22;3740;50.700;7.184;2022-10-04T23:15:07;12.60;99.90
7399;DHT22;3740;50.700;7.184;2022-10-04T23:17:35;12.60;99.90
7399;DHT22;3740;50.700;7.184;2022-10-04T23:20:13;12.60;99.90
7399;DHT22;3740;50.700;7.184;2022-10-04T23:22:43;12.60;99.90
7399;DHT22;3740;50.700;7.184;2022-10-04T23:25:27;12.60;99.90
7399;DHT22;3740;50.700;7.184;2022-10-04T23:27:57;12.60;99.90
7399;DHT22;3740;50.700;7.184;2022-10-04T23:30:23;12.60;99.90
7399;DHT22;3740;50.700;7.184;2022-10-04T23:32:51;12.60;99.90
7399;DHT22;3740;50.700;7.184;2022-10-04T23:35:23;12.50;99.90
7399;DHT22;3740;50.700;7.184;2022-10-04T23:37:50;12.40;99.90
7399;DHT22;3740;50.700;7.184;2022-10-04T23:40:21;12.40;99.90
7399;DHT22;3740;50.700;7.184;2022-10-04T23:42:48;12.40;99.90
7399;DHT22;3740;50.700;7.184;2022-10-04T23:45:23;12.40;99.90
7399;DHT22;3740;50.700;7.184;2022-10-04T23:47:54;12.40;99.90
7399;DHT22;3740;50.700;7.184;2022-10-04T23:50:32;12.30;99.90
7399;DHT22;3740;50.700;7.184;2022-10-04T23:53:01;12.20;99.90
7399;DHT22;3740;50.700;7.184;2022-10-04T23:55:34;12.30;99.90
7399;DHT22;3740;50.700;7.184;2022-10-04T23:58:00;12.30;99.90
